Logo AVAMET
Benvolgut visitant, si us plau, ingressa Recuperar contrasenya

Atzeneta del Maestrat Ajuntament

Dades diàries. Acumulats / Últims 30 dies disponibles

Data Temperatura (°C) Humitat rel. (%) Pressió rel. (hPa) Vent (km/h) Precipi-
tació (mm)
Mínima Mitjana Màxima Mínima Mitjana Màxima Mínima Mitjana Màxima Predom. Mitjana Ràfega
màxima
Mínima Mitjana Màxima Mínima Mitjana Màxima
Dades mensuals acumulades fins l'últim dia disponible
11/2017 -2,3 5,5 9,8 12,0 15,8 19,0 23,1   3,9 61,2 0,4
Dades anuals acumulades fins l'últim dia disponible
2017 -3,0 9,2 21,3 16,2 4,1 23,5 36,9   3,1 69,2 334,6
Últims 30 dies disponibles
17-11-2017 0,0     8,2     19,7 SSW 1,3 14,5 0,0
16-11-2017 -1,1     6,8     17,6 SE 1,0 14,5 0,0
15-11-2017 -2,3     6,4     18,2 SSW 0,6 12,9 0,0
14-11-2017 0,8     9,2     16,9 NE 3,1 20,9 0,0
13-11-2017 7,6     12,3     16,6 NE 8,7 61,2 0,0
12-11-2017 8,2     16,0     23,1 SW 3,2 29,0 0,0
11-11-2017 9,8     15,9     20,9 NE 6,9 43,5 0,0
10-11-2017 7,0     12,9     18,1 NE 5,5 38,6 0,0
09-11-2017 8,9     11,4     15,8 NE 7,7 45,1 0,0
08-11-2017 1,9     10,8     17,6 NE 3,1 24,1 0,0
07-11-2017 2,8     10,2     18,1 NE 3,1 30,6 0,0
06-11-2017 9,8     12,4     15,8 NE 7,6 45,1 0,0
05-11-2017 7,8     14,1     19,1 NE 5,5 48,3 0,0
04-11-2017 9,8     14,8     21,3 SW 2,1 20,9 0,2
03-11-2017 6,8     13,2     21,2 SSE 1,8 19,3 0,2
02-11-2017 8,4     14,2     21,3 SW 2,4 20,9 0,0
01-11-2017 7,6     14,8     21,3 SSW 2,7 20,9 0,0
31-10-2017 7,9     13,9     18,3 SW 2,1 20,9 0,0
30-10-2017 7,1     13,3     22,7 SW 3,1 17,7 0,0
29-10-2017 6,7     13,9     23,3 SW 1,4 14,5 0,2
28-10-2017 10,7     16,9     23,7 NE 2,4 20,9 0,0
27-10-2017 8,7     17,4     29,8 SW 1,4 14,5 0,0
26-10-2017 7,3     15,5     26,1 SW 1,1 14,5 0,2
25-10-2017 6,9     16,8     26,1 SW 1,0 16,1 0,0
24-10-2017 6,1     14,6     25,4 SW 1,4 25,7 0,0
23-10-2017 5,4     12,9     22,3 SW 1,4 17,7 0,2
22-10-2017 9,9     16,6     22,1 NE 3,9 24,1 0,0
21-10-2017 9,4     17,1     26,3 SSW 1,9 19,3 0,2
20-10-2017 10,6     16,7     23,4 SE 2,3 20,9 0,0
19-10-2017 9,4     13,6     19,8 SW 1,4 16,1 0,0
Últims 13 mesos disponibles
10/2017 4,9 9,8 16,7 16,7 18,3 24,8 29,8 2,1 25,7 37,2
09/2017 6,7 12,7 17,6 19,0 18,6 26,5 34,1 2,6 38,6 47,8
08/2017 10,7 16,7 21,0 23,6 25,3 30,5 36,9 3,1 32,2 50,2
07/2017 11,6 17,0 21,3 24,1 20,8 30,8 34,5 3,6 30,6 3,0
06/2017 11,1 15,3 19,7 23,3 19,9 30,1 34,0 3,6 40,2 16,4
05/2017 3,5 9,6 14,3 17,7 19,6 25,4 30,8 3,4 35,4 6,8
04/2017 -1,1 4,8 9,9 12,9 12,1 20,6 27,9 3,0 40,2 23,6
03/2017 -0,3 3,5 7,6 11,4 11,1 19,8 28,0 2,6 43,5 45,6
02/2017 -0,7 3,4 10,4 9,0 7,1 15,4 20,2 2,9 67,6 23,8
01/2017 -3,0 0,9 8,3 6,6 4,1 12,9 18,9 4,0 69,2 79,8
Tots els anys disponibles
Temperatura (°C)
Humitat relativa (%)
Velocitat del vent (km/h) i direcció (°)
Pressió (hPa) i precipitació (mm)
Nota sobre les dades: s'avisa a l'usuari de la provisionalitat i no oficialitat d'aquestes dades
Logo AVAMET blanc
Llicència de Creative CommonsLa web d'AVAMET i els seus continguts estan subjectes a una llicència de
Reconeixement - No Comercial - Compartir igual
Properes estacions: Los Isidros, Los Ruices (soci), Albocàsser - la Llacuna (AMEAL) - - - Últimes estacions: Sagunt - Racó de Gausa (soci), Sagunt - els Arenals (soci), El Puig - la Lloma (soci), Nàquera - Germanells (soci) - - - - - - - - - - - - Properes estacions: Los Isidros, Los Ruices (soci), Albocàsser - la Llacuna (AMEAL) - - - Últimes estacions: Sagunt - Racó de Gausa (soci), Sagunt - els Arenals (soci), El Puig - la Lloma (soci), Nàquera - Germanells (soci)